Barksdale Air Force Base
KBAD : rendu visible

Aérodrome :











RETROUVEZ-NOUS SUR...

 
LOGIN :

S'inscrire | Disclaimer

   EN    FR    IT 

 









Légende :    VFR   VFR Marginal   IFR   IFR Intensif   IFR Très Intensif
Visi : 
Plafond : 
>= 8 km
>= 3000ft
5 à 8 km
1000 à 3000 ft
1500m à 5 km
500 à 1000 ft
800 à 1500m
200 à 500 ft
< 800m
< 200 ft
Symboles :   Orages  Brouillard  Fortes neiges  Fortes précipitations  Vent > 20 kt






- Altitude de l'aérodrome : 166 ft


KBAD - Barksdale Air Force Base

DERNIER METAR :
  • 260556Z AUTO 18003KT 10SM -RA FEW028 SCT039 BKN048 OVC060 11/08 A3008 RMK AO2 RAE10DZB10E11RAB52 SLP189 P0001 60001 T01070078 10131 20100 401641013 50002

METARs EXPIRÉS :
  • 260511Z AUTO 15008KT 10SM FEW030 OVC060 10/07 A3006 RMK AO2 RAE10DZB10E11 SLP182
  • 260456Z AUTO 14007KT 10SM -RA FEW032 SCT048 OVC070 10/08 A3007 RMK AO2 RAE00RAB06E34DZB34E35RAB41 SLP186 P0000 T01010077
  • 260441Z AUTO 16007KT 10SM -RA FEW048 OVC070 11/08 A3008 RMK AO2 RAE00RAB06E34DZB34E35RAB41 SLP189
  • 260406Z AUTO 16005KT 10SM -RA OVC075 11/05 A3008 RMK AO2 RAE00RAB06 SLP189
  • 260400Z AUTO 17005KT 10SM OVC075 11/06 A3008 RMK AO2 RAE00 SLP189
  • 260349Z AUTO 17006KT 10SM -RA OVC075 11/05 A3008 RMK AO2 RAB31E41RAB49 SLP189
  • 260341Z AUTO 17007KT 10SM OVC075 11/05 A3008 RMK AO2 RAB31E41 SLP189
  • 260331Z AUTO 16006KT 10SM -RA OVC075 11/05 A3008 RMK AO2 RAB31 SLP189

TAF TAF KBAD
Valide du 26 à 02h jusqu'au 27 à 08h UTC


260200Z 2602/2708 15006KT 9999 OVC080 QNH3008INS
BECMG 2607/2608 15006KT 9999 VCSH OVC025 QNH3004INS
BECMG 2611/2612 17008KT 4800 -SHRA BR OVC015 QNH3002INS
BECMG 2615/2616 16006KT 8000 VCSH BR OVC009 QNH2998INS
BECMG 2620/2621 18006KT 6000 BR OVC005 QNH2996INS
BECMG 2700/2701 35004KT 3200 BR OVC003 QNH2998INS TX14/2621Z TN08/2613Z



MET'MAP, la Météo Aéronautique d'un coup d'oeil ! - Copyright ORBIFLY Décembre 2007 - Disclaimer

ORBIFLY MET'MAP TEAM :

Programmation & Développement : Alexandra Zaïnal
Sur une idée originale de : Baudouin d'Aumeries
Assistance à la programmation : Marc-Olivier Méhu
Soutien technique & logistique : Manuel Goepfert

Contact : metmap@orbifly.com




SOURCES & CREDITS :

   NOAA       Earth
Advisory